Terminal Aerodrome Forecast
Issued by NWS Tulsa, OK

Home | Current Version | Previous Version | Text Only | Print | Product List | Glossary Off
Versions: 1 2 3 4 5 6 7 8 9 10 11 12 13 14 15 16 17 18 19 20

000
FTUS44 KTSA 220700 AAB
TAFFSM
TAF AMD
KFSM 220756Z 2208/2306 06005KT 6SM BR SCT005 OVC035
      TEMPO 2208/2210 4SM -DZ BR BKN005 OVC025
     FM221000 09007KT 5SM BR OVC012
     FM221500 14008KT P6SM OVC015
     FM221800 20010KT P6SM OVC025
     FM222200 27012KT P6SM BKN025
     FM230100 27007KT P6SM SCT030 BKN250=

USA.gov is the U.S. government's official web portal to all federal, state and local government web resources and services.